Time;durP1;ratioP1;P1;durP2;ratioP2;P2;SDS_P1;SDS_P2;PMS_P1;PMS_P2;Temp;Humidity;BMP_temperature;BMP_pressure;BME280_temperature;BME280_humidity;BME280_pressure;Samples;Min_cycle;Max_cycle;Signal;HPM_P1;HPM_P2
2021/01/02 00:01:37;;;;;;;;;21.75;21.75;;;;;9.33;80.16;101518.53;4349463;32;12475;-75
2021/01/02 00:04:51;;;;;;;;;19.00;19.00;;;;;9.41;80.20;101526.13;4353363;32;12534;-75
2021/01/02 00:08:13;;;;;;;;;21.25;20.50;;;;;9.34;80.33;101531.22;4360598;32;13096;-75
2021/01/02 00:11:26;;;;;;;;;23.25;20.75;;;;;9.41;79.64;101539.13;4354199;32;12334;-74
2021/01/02 00:14:23;;;;;;;;;21.25;20.75;;;;;9.47;79.30;101554.47;4363704;32;12415;-74
2021/01/02 00:17:35;;;;;;;;;16.75;16.75;;;;;9.36;79.57;101553.84;4374452;32;12369;-75
2021/01/02 00:20:06;;;;;;;;;16.00;15.50;;;;;9.27;79.45;101566.66;4376174;32;12366;-74
2021/01/02 00:23:10;;;;;;;;;13.25;13.25;;;;;8.87;81.11;101565.34;4373926;32;12423;-74
2021/01/02 00:26:32;;;;;;;;;19.25;18.50;;;;;8.93;81.47;101569.69;4371067;32;12363;-74
2021/01/02 00:29:45;;;;;;;;;17.00;17.00;;;;;9.22;80.29;101564.00;4372242;32;12326;-74
2021/01/02 00:33:33;;;;;;;;;18.75;18.75;;;;;9.25;79.99;101566.16;4374419;32;12366;-75
2021/01/02 00:36:53;;;;;;;;;10.50;10.50;;;;;9.22;79.88;101563.19;4364143;32;12347;-74
2021/01/02 00:39:44;;;;;;;;;20.00;20.00;;;;;9.24;79.99;101570.03;4374782;32;12273;-74
2021/01/02 00:42:43;;;;;;;;;21.00;20.25;;;;;9.17;80.59;101564.09;4360631;32;12369;-74
2021/01/02 00:45:38;;;;;;;;;17.00;17.00;;;;;9.34;79.61;101556.06;4360107;32;12395;-73
2021/01/02 00:48:34;;;;;;;;;21.00;21.00;;;;;8.98;80.43;101571.56;4357830;32;12385;-74
2021/01/02 00:51:38;;;;;;;;;18.75;18.75;;;;;9.20;79.99;101574.50;4375523;32;12394;-74
2021/01/02 00:54:46;;;;;;;;;20.00;19.25;;;;;9.23;79.86;101573.09;4376217;32;12395;-74
2021/01/02 00:57:48;;;;;;;;;22.00;22.00;;;;;9.18;80.18;101571.25;4373362;32;12283;-74
2021/01/02 01:00:44;;;;;;;;;15.00;15.00;;;;;9.28;79.74;101578.53;4356465;33;12343;-73
2021/01/02 01:03:53;;;;;;;;;18.50;18.50;;;;;9.22;79.60;101580.56;4372445;32;12368;-74
2021/01/02 01:06:55;;;;;;;;;20.75;20.75;;;;;9.24;79.42;101580.25;4374088;32;12368;-73
2021/01/02 01:09:52;;;;;;;;;26.25;24.75;;;;;9.21;79.69;101586.41;4350358;32;13103;-74
2021/01/02 01:12:56;;;;;;;;;21.50;20.50;;;;;9.31;79.39;101577.94;4367489;32;12545;-74
2021/01/02 01:15:56;;;;;;;;;25.50;23.75;;;;;9.33;79.17;101575.69;4361112;32;12355;-74
2021/01/02 01:19:04;;;;;;;;;25.50;24.00;;;;;9.23;79.35;101576.69;4374956;32;13072;-74
2021/01/02 01:22:05;;;;;;;;;23.00;23.00;;;;;9.37;79.08;101596.06;4360716;32;12391;-74
2021/01/02 01:25:06;;;;;;;;;29.00;26.50;;;;;9.37;78.84;101604.34;4359425;32;12407;-74
2021/01/02 01:28:08;;;;;;;;;20.75;20.75;;;;;9.32;78.93;101602.47;4358447;32;12405;-74
2021/01/02 01:31:04;;;;;;;;;24.25;23.00;;;;;9.21;79.34;101601.00;4350263;32;12352;-74
2021/01/02 01:33:33;;;;;;;;;29.50;26.75;;;;;9.17;79.49;101602.72;4372688;32;12424;-74
2021/01/02 01:36:42;;;;;;;;;25.00;25.00;;;;;9.06;80.05;101612.28;4352233;32;12431;-74
2021/01/02 01:39:31;;;;;;;;;21.25;21.25;;;;;9.18;79.71;101605.16;4348530;32;12487;-74
2021/01/02 01:42:18;;;;;;;;;30.00;27.50;;;;;9.15;79.84;101611.31;4359560;32;12424;-74
2021/01/02 01:45:39;;;;;;;;;25.50;24.75;;;;;9.23;79.51;101614.50;4368793;32;12369;-74
2021/01/02 01:48:11;;;;;;;;;27.25;21.75;;;;;9.12;80.02;101617.44;4362320;32;13278;-73
2021/01/02 01:51:09;;;;;;;;;22.75;22.75;;;;;9.09;80.25;101615.25;4375783;32;12361;-73
2021/01/02 01:54:19;;;;;;;;;24.50;23.75;;;;;9.15;80.24;101629.81;4357293;32;12378;-75
2021/01/02 01:56:50;;;;;;;;;21.25;21.25;;;;;9.19;79.87;101630.84;4360307;32;12473;-74
2021/01/02 01:59:55;;;;;;;;;30.00;30.00;;;;;9.32;79.50;101632.03;4369514;32;12345;-74
2021/01/02 02:03:01;;;;;;;;;23.75;23.75;;;;;9.19;79.78;101634.41;4364476;32;12428;-73
2021/01/02 02:06:02;;;;;;;;;20.50;20.50;;;;;9.29;79.68;101635.41;4361198;32;13064;-74
2021/01/02 02:08:59;;;;;;;;;20.25;20.25;;;;;9.30;79.64;101634.28;4357970;33;12436;-73
2021/01/02 02:11:44;;;;;;;;;32.50;30.50;;;;;9.31;79.49;101639.50;4359685;32;12364;-73
2021/01/02 02:14:58;;;;;;;;;21.50;21.50;;;;;9.20;79.74;101643.50;4360121;32;12321;-73
2021/01/02 02:17:44;;;;;;;;;25.00;24.50;;;;;9.32;79.53;101643.06;4374350;32;12336;-73
2021/01/02 02:20:30;;;;;;;;;22.75;22.75;;;;;9.32;79.43;101656.87;4348071;33;12442;-74
2021/01/02 02:23:32;;;;;;;;;21.50;21.50;;;;;9.41;78.98;101660.59;4348945;32;12420;-74
2021/01/02 02:26:04;;;;;;;;;33.50;31.50;;;;;9.39;79.08;101660.09;4360039;32;12439;-74
2021/01/02 02:28:55;;;;;;;;;27.50;26.75;;;;;9.42;79.00;101662.22;4345172;33;12409;-73
2021/01/02 02:31:55;;;;;;;;;35.75;35.75;;;;;9.25;79.46;101665.53;4354136;32;12443;-73
2021/01/02 02:34:52;;;;;;;;;30.25;30.25;;;;;9.11;80.15;101670.16;4372929;32;12490;-73
2021/01/02 02:37:29;;;;;;;;;39.00;37.25;;;;;8.93;80.31;101674.53;4363414;32;12401;-74
2021/01/02 02:40:24;;;;;;;;;34.75;34.75;;;;;9.27;79.23;101676.25;4362663;32;12429;-73
2021/01/02 02:43:01;;;;;;;;;34.75;33.00;;;;;9.40;78.82;101675.53;4359853;32;12444;-73
2021/01/02 02:45:56;;;;;;;;;35.00;35.00;;;;;9.12;79.24;101688.34;4358116;32;12410;-74
2021/01/02 02:48:54;;;;;;;;;36.25;36.00;;;;;9.35;78.66;101692.97;4349423;32;12533;-74
2021/01/02 02:52:12;;;;;;;;;33.25;31.25;;;;;9.11;79.36;101698.56;4357199;32;13170;-74
2021/01/02 02:55:09;;;;;;;;;34.25;34.25;;;;;9.26;78.77;101703.06;4361042;33;12605;-74
2021/01/02 02:58:06;;;;;;;;;38.50;36.00;;;;;8.85;80.07;101703.59;4358859;32;12488;-74
2021/01/02 03:01:01;;;;;;;;;36.25;35.00;;;;;9.19;78.88;101699.84;4357554;33;12488;-74
2021/01/02 03:03:57;;;;;;;;;34.75;34.25;;;;;9.25;78.52;101717.16;4367690;32;12458;-75
2021/01/02 03:06:30;;;;;;;;;38.25;38.00;;;;;9.22;78.53;101709.47;4374753;32;12418;-74
2021/01/02 03:09:26;;;;;;;;;36.00;33.00;;;;;9.23;78.36;101711.94;4362819;32;12470;-74
2021/01/02 03:11:53;;;;;;;;;33.50;31.75;;;;;9.08;78.60;101720.41;4361367;32;12521;-74
2021/01/02 03:14:57;;;;;;;;;38.75;34.75;;;;;9.17;78.22;101722.22;4352645;33;12556;-74
2021/01/02 03:17:26;;;;;;;;;40.00;37.25;;;;;9.06;78.64;101723.47;4350156;32;12490;-75
2021/01/02 03:20:06;;;;;;;;;38.75;37.50;;;;;9.12;78.72;101719.53;4373845;32;12416;-74
2021/01/02 03:23:03;;;;;;;;;35.75;35.75;;;;;9.13;78.84;101723.94;4347133;33;12490;-75
2021/01/02 03:26:04;;;;;;;;;36.50;36.25;;;;;9.23;78.21;101727.69;4338123;33;12487;-74
2021/01/02 03:29:00;;;;;;;;;38.25;37.75;;;;;9.15;78.41;101732.75;4358762;32;12478;-74
2021/01/02 03:31:56;;;;;;;;;41.75;39.75;;;;;8.97;78.78;101736.28;4373234;32;12428;-75
2021/01/02 03:34:23;;;;;;;;;50.25;42.75;;;;;9.15;78.52;101735.50;4359249;32;13109;-75
2021/01/02 03:37:20;;;;;;;;;35.25;31.25;;;;;9.05;78.48;101738.41;4374229;32;12494;-75
2021/01/02 03:40:17;;;;;;;;;42.75;39.25;;;;;8.87;79.48;101750.19;4372248;32;13142;-74
2021/01/02 03:43:13;;;;;;;;;43.25;39.75;;;;;9.05;78.82;101751.38;4360294;32;12442;-74
2021/01/02 03:46:08;;;;;;;;;48.00;42.00;;;;;8.94;79.12;101758.94;4347918;33;12550;-74
2021/01/02 03:48:50;;;;;;;;;43.75;41.00;;;;;8.60;80.59;101759.06;4360719;32;12972;-74
2021/01/02 03:51:25;;;;;;;;;51.00;44.50;;;;;8.78;79.83;101771.25;4379537;32;12360;-75
2021/01/02 03:54:21;;;;;;;;;37.00;36.75;;;;;8.77;79.55;101769.63;4375541;32;12401;-75
2021/01/02 03:56:50;;;;;;;;;50.00;44.25;;;;;8.60;80.58;101775.59;4359946;32;12483;-74
2021/01/02 03:59:26;;;;;;;;;47.25;41.00;;;;;8.43;81.41;101792.56;4362133;32;13135;-74
2021/01/02 04:02:27;;;;;;;;;28.50;28.50;;;;;8.50;81.04;101786.72;4375148;32;12481;-74
2021/01/02 04:04:56;;;;;;;;;43.25;39.25;;;;;8.57;80.04;101801.81;4362227;32;12411;-74
2021/01/02 04:07:52;;;;;;;;;44.75;40.50;;;;;8.76;79.99;101799.16;4364750;32;12502;-74
2021/01/02 04:10:47;;;;;;;;;43.00;39.50;;;;;8.78;79.58;101804.38;4353183;32;12586;-74
2021/01/02 04:13:17;;;;;;;;;44.75;39.00;;;;;8.34;80.58;101819.06;4360243;33;12490;-74
2021/01/02 04:16:00;;;;;;;;;55.25;47.50;;;;;8.46;80.51;101827.84;4350537;32;12540;-74
2021/01/02 04:18:27;;;;;;;;;40.25;38.75;;;;;8.80;79.41;101824.19;4361146;32;12471;-74
2021/01/02 04:20:55;;;;;;;;;45.00;40.50;;;;;8.42;80.43;101831.44;4349096;32;12480;-74
2021/01/02 04:23:22;;;;;;;;;50.25;41.75;;;;;8.39;80.38;101830.09;4350165;32;12420;-74
2021/01/02 04:25:50;;;;;;;;;54.00;44.75;;;;;8.53;80.40;101833.03;4347555;33;12491;-74
2021/01/02 04:28:50;;;;;;;;;51.75;43.75;;;;;8.50;80.16;101837.16;4360290;32;12423;-74
2021/01/02 04:31:45;;;;;;;;;55.50;47.00;;;;;8.46;80.34;101841.62;4369395;32;12356;-74
2021/01/02 04:34:41;;;;;;;;;50.25;43.50;;;;;8.60;79.94;101850.06;4353598;32;12598;-74
2021/01/02 04:37:36;;;;;;;;;49.25;44.25;;;;;8.56;80.19;101851.72;4349351;33;12554;-74
2021/01/02 04:40:32;;;;;;;;;55.75;45.50;;;;;8.68;79.64;101854.94;4366962;32;12488;-74
2021/01/02 04:43:27;;;;;;;;;55.25;46.75;;;;;8.69;79.63;101869.56;4363514;32;13185;-74
2021/01/02 04:45:56;;;;;;;;;50.75;44.50;;;;;8.60;79.85;101880.38;4371414;32;12467;-74
2021/01/02 04:48:23;;;;;;;;;55.00;46.75;;;;;8.64;79.82;101884.19;4361332;32;12452;-74
2021/01/02 04:51:19;;;;;;;;;58.00;48.25;;;;;8.71;79.58;101883.88;4373853;32;12416;-74
2021/01/02 04:54:19;;;;;;;;;59.50;49.50;;;;;8.82;79.22;101888.19;4360192;32;12409;-75
2021/01/02 04:57:18;;;;;;;;;58.75;49.25;;;;;8.85;79.18;101893.12;4371386;32;12404;-74
2021/01/02 05:00:15;;;;;;;;;60.25;49.25;;;;;8.85;78.92;101901.41;4366982;32;12495;-75
2021/01/02 05:03:11;;;;;;;;;51.50;45.25;;;;;8.72;79.64;101907.56;4361021;32;12421;-74
2021/01/02 05:05:59;;;;;;;;;63.75;53.50;;;;;8.56;79.81;101917.91;4374752;32;12453;-74
2021/01/02 05:08:28;;;;;;;;;49.75;44.25;;;;;8.70;79.78;101923.59;4349770;32;12409;-74
2021/01/02 05:11:25;;;;;;;;;63.75;51.25;;;;;8.74;79.91;101930.16;4375165;32;13130;-75
2021/01/02 05:14:21;;;;;;;;;58.25;47.00;;;;;8.81;79.38;101928.72;4357640;32;13131;-74
2021/01/02 05:17:25;;;;;;;;;57.25;47.75;;;;;8.88;79.35;101937.50;4349780;32;12399;-74
2021/01/02 05:20:21;;;;;;;;;60.75;50.50;;;;;8.94;79.19;101945.75;4358606;32;13104;-74
2021/01/02 05:23:16;;;;;;;;;56.50;48.00;;;;;8.88;79.36;101954.06;4349686;33;12442;-73
2021/01/02 05:26:07;;;;;;;;;63.00;46.75;;;;;8.99;79.20;101942.94;4350427;32;12438;-74
2021/01/02 05:29:21;;;;;;;;;60.25;50.25;;;;;8.99;79.18;101949.28;4359493;32;12447;-74
2021/01/02 05:32:16;;;;;;;;;56.50;48.00;;;;;9.12;78.78;101956.91;4367496;32;12433;-74
2021/01/02 05:35:22;;;;;;;;;54.50;46.75;;;;;9.04;78.82;101962.19;4357093;32;12445;-73
2021/01/02 05:38:22;;;;;;;;;53.50;46.75;;;;;9.04;78.86;101973.22;4380958;32;12558;-74
2021/01/02 05:41:18;;;;;;;;;57.25;47.25;;;;;9.18;78.72;101965.94;4368540;32;12612;-74
2021/01/02 05:44:14;;;;;;;;;58.25;45.75;;;;;9.11;78.56;101977.31;4355886;32;12440;-74
2021/01/02 05:47:12;;;;;;;;;59.75;49.00;;;;;9.15;78.33;101972.87;4363350;32;12497;-75
2021/01/02 05:49:48;;;;;;;;;56.00;45.25;;;;;9.20;78.01;101977.50;4380105;32;12403;-75
2021/01/02 05:52:49;;;;;;;;;48.75;43.75;;;;;9.18;77.79;101979.75;4370661;32;12416;-74
2021/01/02 05:55:45;;;;;;;;;50.25;44.25;;;;;9.28;77.78;101992.63;4373126;32;12525;-74
2021/01/02 05:58:42;;;;;;;;;48.75;42.25;;;;;9.14;78.24;101998.81;4372016;32;12434;-74
2021/01/02 06:01:38;;;;;;;;;54.50;46.50;;;;;9.14;78.40;101996.06;4358618;32;12550;-74
2021/01/02 06:04:53;;;;;;;;;49.00;40.50;;;;;9.19;79.04;101997.94;4360048;32;12481;-73
2021/01/02 06:07:20;;;;;;;;;54.50;47.50;;;;;9.47;79.30;102010.13;4360661;32;12415;-73
2021/01/02 06:10:09;;;;;;;;;56.25;47.50;;;;;9.62;78.27;102020.19;4358069;32;13136;-73
2021/01/02 06:13:05;;;;;;;;;56.75;48.75;;;;;9.68;77.71;102021.78;4357706;32;12403;-73
2021/01/02 06:16:03;;;;;;;;;59.25;47.25;;;;;9.65;77.02;102033.41;4373799;32;12430;-74
2021/01/02 06:18:59;;;;;;;;;49.25;44.25;;;;;9.73;76.16;102030.81;4372911;32;12418;-74
2021/01/02 06:21:30;;;;;;;;;63.25;50.25;;;;;9.69;76.25;102040.81;4374223;32;12467;-74
2021/01/02 06:24:26;;;;;;;;;62.50;51.00;;;;;9.63;76.74;102038.41;4364229;32;12436;-74
2021/01/02 06:27:09;;;;;;;;;42.50;39.50;;;;;9.63;76.42;102052.22;4363061;32;12519;-74
2021/01/02 06:30:06;;;;;;;;;48.25;43.50;;;;;9.77;76.45;102055.94;4370834;32;13129;-74
2021/01/02 06:33:02;;;;;;;;;47.00;42.50;;;;;9.82;76.06;102064.19;4359494;32;12478;-74
2021/01/02 06:35:58;;;;;;;;;60.75;49.50;;;;;9.77;76.73;102071.69;4358135;32;12603;-73
2021/01/02 06:39:19;;;;;;;;;48.75;43.75;;;;;9.78;76.37;102079.69;4357977;32;12437;-72
2021/01/02 06:42:31;;;;;;;;;47.75;44.00;;;;;9.84;76.28;102073.00;4372685;32;13230;-73
2021/01/02 06:45:36;;;;;;;;;53.50;44.75;;;;;9.78;76.04;102076.94;4362178;32;12487;-74
2021/01/02 06:48:30;;;;;;;;;50.50;44.50;;;;;9.54;76.21;102079.66;4362209;32;12349;-74
2021/01/02 06:51:29;;;;;;;;;46.75;40.75;;;;;9.48;76.57;102087.16;4367177;32;12472;-74
2021/01/02 06:54:25;;;;;;;;;42.00;40.00;;;;;9.50;76.62;102099.84;4364370;32;12379;-74
2021/01/02 06:57:13;;;;;;;;;55.00;46.75;;;;;9.41;76.66;102111.50;4360675;32;12386;-74
2021/01/02 07:00:26;;;;;;;;;56.75;49.25;;;;;9.43;76.48;102116.72;4368341;32;12519;-74
2021/01/02 07:02:54;;;;;;;;;58.00;47.75;;;;;9.39;76.65;102123.97;4358974;32;12448;-72
2021/01/02 07:05:47;;;;;;;;;52.75;43.25;;;;;9.35;76.58;102126.47;4362742;32;12546;-72
2021/01/02 07:08:41;;;;;;;;;50.00;42.50;;;;;9.33;76.66;102136.16;4356856;32;12493;-74
2021/01/02 07:11:39;;;;;;;;;59.00;48.25;;;;;9.27;76.53;102137.28;4369516;32;12445;-75
2021/01/02 07:14:34;;;;;;;;;50.50;44.75;;;;;9.16;76.78;102142.88;4373513;32;12461;-74
2021/01/02 07:17:30;;;;;;;;;51.50;44.25;;;;;8.99;77.13;102139.69;4363860;32;12478;-74
2021/01/02 07:20:04;;;;;;;;;52.75;44.00;;;;;9.05;77.27;102157.88;4373792;32;12695;-74
2021/01/02 07:22:32;;;;;;;;;49.75;41.50;;;;;8.93;77.28;102160.13;4349160;32;12451;-75
2021/01/02 07:25:19;;;;;;;;;49.50;40.50;;;;;9.04;77.15;102171.94;4360798;32;12414;-76
2021/01/02 07:27:49;;;;;;;;;54.00;45.50;;;;;8.96;77.23;102172.53;4364007;32;12472;-74
2021/01/02 07:30:27;;;;;;;;;54.25;41.50;;;;;9.02;77.12;102177.75;4363607;32;12475;-75
2021/01/02 07:33:22;;;;;;;;;42.00;40.00;;;;;9.02;76.97;102177.75;4363546;32;12428;-75
2021/01/02 07:36:19;;;;;;;;;53.00;44.00;;;;;9.09;76.63;102180.19;4376693;32;12444;-75
2021/01/02 07:38:47;;;;;;;;;44.75;40.75;;;;;8.89;77.12;102204.03;4376804;32;12386;-75
2021/01/02 07:41:32;;;;;;;;;42.50;39.75;;;;;8.93;77.20;102201.53;4375838;32;12459;-75
2021/01/02 07:44:28;;;;;;;;;52.25;43.00;;;;;8.99;76.67;102203.16;4375240;32;12570;-74
2021/01/02 07:46:56;;;;;;;;;45.00;40.75;;;;;8.96;77.01;102202.87;4364021;32;12417;-74
2021/01/02 07:49:24;;;;;;;;;53.75;43.50;;;;;8.84;77.36;102214.28;4361743;32;12411;-75
2021/01/02 07:52:19;;;;;;;;;55.50;45.75;;;;;8.94;77.03;102213.41;4375587;32;12452;-73
2021/01/02 07:55:16;;;;;;;;;49.50;43.00;;;;;8.95;76.94;102224.16;4375136;32;12414;-74
2021/01/02 07:57:58;;;;;;;;;47.75;41.25;;;;;9.05;76.78;102231.56;4362765;32;12441;-73
2021/01/02 08:00:27;;;;;;;;;49.25;43.00;;;;;9.06;76.70;102231.28;4363327;32;12510;-73
2021/01/02 08:03:22;;;;;;;;;53.25;45.25;;;;;9.01;76.82;102228.53;4353158;32;12524;-72
2021/01/02 08:05:58;;;;;;;;;44.25;39.25;;;;;9.08;76.97;102240.09;4371271;32;12476;-73
2021/01/02 08:08:58;;;;;;;;;58.50;45.25;;;;;9.24;76.54;102235.31;4364319;32;12581;-73
2021/01/02 08:11:50;;;;;;;;;57.25;45.75;;;;;9.22;76.26;102239.50;4371956;32;12404;-73
2021/01/02 08:14:23;;;;;;;;;55.25;47.75;;;;;9.31;76.29;102240.53;4377750;32;12410;-73
2021/01/02 08:17:20;;;;;;;;;51.25;45.00;;;;;9.26;76.57;102244.13;4355517;32;12340;-73
2021/01/02 08:20:15;;;;;;;;;50.75;45.00;;;;;9.31;76.31;102246.87;4390943;32;12475;-72
2021/01/02 08:22:43;;;;;;;;;57.50;48.25;;;;;9.45;76.02;102247.09;4378425;32;12441;-73
2021/01/02 08:25:39;;;;;;;;;37.50;35.75;;;;;9.46;76.02;102244.03;4359609;32;12539;-73
2021/01/02 08:28:08;;;;;;;;;48.25;43.25;;;;;9.50;75.68;102258.09;4347666;32;12433;-73
2021/01/02 08:30:39;;;;;;;;;54.50;44.50;;;;;9.50;76.15;102254.50;4375614;32;12473;-73
2021/01/02 08:33:08;;;;;;;;;58.50;49.25;;;;;9.48;76.28;102265.84;4375591;32;12313;-74
2021/01/02 08:35:57;;;;;;;;;48.25;43.75;;;;;9.57;76.37;102255.00;4366270;32;13147;-73
2021/01/02 08:38:59;;;;;;;;;59.00;48.75;;;;;9.63;75.85;102262.97;4361389;32;12457;-74
2021/01/02 08:41:27;;;;;;;;;49.50;44.75;;;;;9.75;76.05;102259.88;4360711;32;12478;-73
2021/01/02 08:43:55;;;;;;;;;56.50;45.25;;;;;9.79;75.60;102260.94;4347915;33;12466;-74
2021/01/02 08:46:51;;;;;;;;;56.50;45.75;;;;;9.79;75.63;102271.16;4359611;32;12480;-74
2021/01/02 08:49:47;;;;;;;;;62.25;48.50;;;;;9.78;75.20;102269.53;4365984;32;13062;-73
2021/01/02 08:52:43;;;;;;;;;49.00;42.75;;;;;9.79;75.20;102274.75;4373050;32;12460;-73
2021/01/02 08:55:14;;;;;;;;;60.75;47.75;;;;;9.81;75.46;102268.94;4367038;32;12432;-73
2021/01/02 08:57:56;;;;;;;;;55.00;47.25;;;;;9.78;75.26;102273.09;4366467;32;12453;-73
2021/01/02 09:00:41;;;;;;;;;52.00;45.50;;;;;9.91;75.17;102266.94;4368016;32;13105;-73
2021/01/02 09:03:37;;;;;;;;;51.50;43.00;;;;;9.72;75.33;102271.47;4374911;32;12448;-74
2021/01/02 09:06:20;;;;;;;;;43.75;38.75;;;;;9.96;75.15;102272.41;4374562;32;12456;-75
2021/01/02 09:09:07;;;;;;;;;53.75;45.00;;;;;9.98;75.09;102277.66;4361848;32;12507;-73
2021/01/02 09:12:05;;;;;;;;;49.25;43.75;;;;;10.05;74.61;102278.16;4358364;32;12441;-73
2021/01/02 09:15:01;;;;;;;;;57.25;47.25;;;;;10.11;74.57;102274.22;4373802;32;12440;-73
2021/01/02 09:17:56;;;;;;;;;57.00;47.75;;;;;10.16;74.47;102285.25;4363542;32;13089;-73
2021/01/02 09:20:46;;;;;;;;;61.25;49.75;;;;;10.12;75.34;102280.56;4375499;32;12370;-72
2021/01/02 09:23:14;;;;;;;;;57.25;45.00;;;;;10.21;74.87;102282.44;4376124;32;12483;-73
2021/01/02 09:25:49;;;;;;;;;53.25;45.50;;;;;10.21;74.61;102285.22;4375796;32;12426;-73
2021/01/02 09:28:46;;;;;;;;;55.00;45.00;;;;;10.28;74.62;102284.91;4372957;32;12419;-74
2021/01/02 09:31:14;;;;;;;;;59.25;48.25;;;;;10.31;74.18;102284.31;4362804;32;12497;-72
2021/01/02 09:33:46;;;;;;;;;58.00;47.75;;;;;10.35;73.92;102293.72;4349727;32;12479;-72
2021/01/02 09:36:17;;;;;;;;;58.75;48.00;;;;;10.33;73.92;102290.38;4374266;32;12422;-73
2021/01/02 09:39:21;;;;;;;;;53.25;43.50;;;;;10.46;73.91;102295.25;4362952;32;12539;-72
2021/01/02 09:42:17;;;;;;;;;53.00;45.50;;;;;10.47;73.54;102298.84;4364023;32;12436;-73
2021/01/02 09:45:14;;;;;;;;;55.50;46.25;;;;;10.36;73.48;102300.87;4373483;32;12403;-73
2021/01/02 09:48:11;;;;;;;;;60.25;50.25;;;;;10.39;73.86;102296.69;4363519;32;12424;-73
2021/01/02 09:50:45;;;;;;;;;61.00;48.75;;;;;10.34;74.30;102299.50;4360637;32;12482;-73
2021/01/02 09:53:41;;;;;;;;;56.50;47.25;;;;;10.42;74.02;102307.16;4372722;32;12493;-73
2021/01/02 09:56:45;;;;;;;;;53.00;45.75;;;;;10.48;73.73;102303.25;4373090;32;12443;-73
2021/01/02 09:59:15;;;;;;;;;60.25;46.75;;;;;10.46;73.77;102309.09;4361582;32;12404;-73
2021/01/02 10:02:10;;;;;;;;;64.75;53.50;;;;;10.56;73.76;102302.62;4374423;32;12460;-73
2021/01/02 10:05:06;;;;;;;;;62.00;51.75;;;;;10.45;74.42;102314.91;4363519;32;12592;-72
2021/01/02 10:07:42;;;;;;;;;55.00;47.50;;;;;10.58;73.82;102306.75;4360164;32;12406;-73
2021/01/02 10:10:11;;;;;;;;;63.00;51.50;;;;;10.55;73.64;102309.28;4373679;32;12471;-73
2021/01/02 10:12:43;;;;;;;;;57.75;48.25;;;;;10.61;73.63;102316.41;4361427;32;12416;-72
2021/01/02 10:15:14;;;;;;;;;56.50;47.25;;;;;10.64;73.61;102318.59;4374678;32;12465;-73
2021/01/02 10:17:43;;;;;;;;;52.50;45.50;;;;;10.68;73.13;102321.59;4361865;32;12529;-73
2021/01/02 10:20:13;;;;;;;;;59.75;49.00;;;;;10.52;73.36;102332.00;4374594;32;12482;-74
2021/01/02 10:22:41;;;;;;;;;56.75;47.00;;;;;10.56;73.26;102328.34;4360861;32;12469;-73
2021/01/02 10:25:11;;;;;;;;;59.25;48.25;;;;;10.44;73.49;102327.91;4361182;32;12450;-73
2021/01/02 10:27:39;;;;;;;;;54.00;45.50;;;;;10.48;73.38;102323.44;4361800;32;12441;-73
2021/01/02 10:30:34;;;;;;;;;50.00;43.25;;;;;10.46;73.60;102331.22;4362729;32;12542;-74
2021/01/02 10:33:02;;;;;;;;;51.75;44.25;;;;;10.50;73.82;102325.91;4360941;32;12485;-72
2021/01/02 10:36:10;;;;;;;;;50.25;42.00;;;;;10.46;73.93;102324.84;4373638;32;12495;-72
2021/01/02 10:39:06;;;;;;;;;53.75;45.75;;;;;10.45;73.59;102318.50;4374302;32;12561;-73
2021/01/02 10:42:03;;;;;;;;;48.75;42.75;;;;;10.49;73.29;102322.31;4362722;32;12419;-73
2021/01/02 10:45:00;;;;;;;;;51.75;43.50;;;;;10.32;73.63;102329.41;4373359;32;12454;-73
2021/01/02 10:47:56;;;;;;;;;48.50;39.50;;;;;10.41;73.25;102331.25;4374008;32;12510;-73
2021/01/02 10:50:52;;;;;;;;;60.50;49.75;;;;;10.38;74.02;102317.19;4362428;32;12429;-74
2021/01/02 10:53:43;;;;;;;;;61.50;51.75;;;;;10.47;73.93;102320.97;4363572;32;12427;-73
2021/01/02 10:56:16;;;;;;;;;61.25;51.25;;;;;10.48;73.79;102326.22;4373668;32;13088;-73
2021/01/02 10:58:43;;;;;;;;;64.50;54.00;;;;;10.40;74.19;102328.78;4361662;32;13054;-73
2021/01/02 11:01:50;;;;;;;;;64.00;53.00;;;;;10.39;74.16;102327.94;4366925;32;12460;-73
2021/01/02 11:04:24;;;;;;;;;67.25;54.25;;;;;10.41;74.42;102333.19;4363682;32;12580;-73
2021/01/02 11:07:24;;;;;;;;;69.25;52.25;;;;;10.43;74.38;102333.75;4374110;32;13207;-72
2021/01/02 11:10:20;;;;;;;;;63.00;51.50;;;;;10.23;74.90;102327.25;4376176;32;12442;-71
2021/01/02 11:12:47;;;;;;;;;64.25;52.25;;;;;10.30;74.60;102335.22;4374140;32;12502;-71
2021/01/02 11:15:15;;;;;;;;;69.00;56.25;;;;;10.28;74.07;102330.00;4377802;32;12405;-72
2021/01/02 11:17:43;;;;;;;;;74.50;59.25;;;;;10.26;74.43;102334.97;4376397;32;12375;-72
2021/01/02 11:20:38;;;;;;;;;64.50;54.25;;;;;10.27;74.24;102335.78;4366159;32;12488;-72
2021/01/02 11:23:06;;;;;;;;;75.25;57.50;;;;;10.29;73.72;102334.41;4375740;32;12420;-72
2021/01/02 11:26:02;;;;;;;;;75.50;58.75;;;;;10.33;73.68;102342.09;4380202;32;12450;-72
2021/01/02 11:28:29;;;;;;;;;97.67;87.67;;;;;10.29;73.82;102339.94;4391216;32;12395;-72
2021/01/02 11:31:31;;;;;;;;;79.50;62.00;;;;;10.35;73.70;102331.56;4362277;32;8934;-72
2021/01/02 11:33:58;;;;;;;;;71.00;58.50;;;;;10.31;74.00;102345.16;4348648;33;12489;-72
2021/01/02 11:36:59;;;;;;;;;63.00;51.75;;;;;10.29;73.94;102342.69;4383417;32;12456;-72
2021/01/02 11:39:55;;;;;;;;;59.75;49.50;;;;;10.25;74.08;102338.84;4375990;32;13107;-73
2021/01/02 11:42:22;;;;;;;;;65.25;50.75;;;;;10.29;73.99;102352.94;4377071;32;12426;-73
2021/01/02 11:45:20;;;;;;;;;57.75;48.75;;;;;10.28;73.55;102348.53;4376297;32;12515;-73
2021/01/02 11:48:16;;;;;;;;;55.00;47.00;;;;;10.32;73.42;102351.53;4375412;32;12499;-72
2021/01/02 11:51:13;;;;;;;;;59.00;49.50;;;;;10.29;73.35;102358.47;4374312;32;12490;-73
2021/01/02 11:54:08;;;;;;;;;55.50;47.75;;;;;10.28;73.72;102360.41;4374616;32;12496;-73
2021/01/02 11:56:45;;;;;;;;;57.50;47.50;;;;;10.34;73.34;102354.81;4383795;32;12542;-73
2021/01/02 11:59:13;;;;;;;;;65.50;54.00;;;;;10.29;73.80;102362.06;4389091;32;12439;-72
2021/01/02 12:01:57;;;;;;;;;66.00;54.00;;;;;10.29;73.93;102364.81;4377995;32;13142;-72
2021/01/02 12:04:53;;;;;;;;;66.50;54.75;;;;;10.34;73.90;102365.87;4389917;32;12463;-72
2021/01/02 12:07:21;;;;;;;;;62.50;52.25;;;;;10.39;73.95;102379.69;4383960;32;12518;-71
2021/01/02 12:10:05;;;;;;;;;71.50;57.50;;;;;10.37;73.32;102376.38;4366528;32;12440;-72
2021/01/02 12:13:00;;;;;;;;;65.50;53.50;;;;;10.34;73.55;102379.72;4356489;32;12514;-72
2021/01/02 12:15:32;;;;;;;;;64.25;54.00;;;;;10.34;73.82;102380.53;4353942;32;12464;-72
2021/01/02 12:18:14;;;;;;;;;65.25;54.25;;;;;10.47;73.43;102390.13;4355046;32;12452;-72
2021/01/02 12:21:17;;;;;;;;;57.25;48.50;;;;;10.40;73.44;102392.37;4356555;32;13260;-72
2021/01/02 12:24:13;;;;;;;;;66.75;54.50;;;;;10.46;72.82;102394.00;4368184;32;12582;-72
2021/01/02 12:26:59;;;;;;;;;51.75;45.50;;;;;10.46;72.44;102391.25;4376446;32;12540;-72
2021/01/02 12:29:28;;;;;;;;;70.75;58.00;;;;;10.42;72.47;102407.56;4354692;32;12452;-72
2021/01/02 12:32:11;;;;;;;;;72.25;56.25;;;;;10.38;72.57;102400.16;4365700;32;12459;-71
2021/01/02 12:34:43;;;;;;;;;66.00;54.25;;;;;10.29;73.25;102409.06;4375334;32;12377;-72
2021/01/02 12:37:14;;;;;;;;;64.00;53.00;;;;;10.26;73.54;102417.09;4361928;32;12401;-72
2021/01/02 12:39:44;;;;;;;;;65.00;52.75;;;;;10.32;73.15;102409.59;4378873;32;12462;-72
2021/01/02 12:42:40;;;;;;;;;64.25;54.00;;;;;10.32;73.23;102417.91;4373493;32;12593;-73
2021/01/02 12:45:36;;;;;;;;;63.00;52.00;;;;;10.32;73.43;102415.12;4372879;32;12574;-72
2021/01/02 12:48:32;;;;;;;;;60.75;50.25;;;;;10.34;73.35;102437.78;4380001;32;12495;-72
2021/01/02 12:51:28;;;;;;;;;57.75;44.00;;;;;10.26;73.38;102434.50;4376658;32;12412;-72
2021/01/02 12:54:24;;;;;;;;;54.00;45.00;;;;;10.41;72.59;102452.12;4373509;32;13169;-72
2021/01/02 12:57:20;;;;;;;;;61.50;51.25;;;;;10.28;72.64;102445.31;4374116;32;12482;-72